WAT7452 HAAB-HJJJ
Flight info
| Callsign | WAT7452 |
|---|---|
| Flight time | 1h 20m |
| Altitude | 34000 |
| Route | KOFTA3A KOFTA B535 DAGAP/N0444F350 B535 TAPOS TAPOS1A |
| Aircraft | B738/M-SDE2E3FGHIRWXY/LB1 |
Departure
| Time | 2026-05-05 08:04 |
|---|---|
| Airport | Addis Ababa Bole International Airport (HAAB) |
Arrival
| Time | 2026-05-05 09:24 |
|---|---|
| Airport | Juba International Airport (HJJJ) |
| Time | Latitude | Longitude | Altitude | Speed | Heading |
|---|---|---|---|---|---|
| 2026-05-05 07:38 | 8.98345 | 38.80065 | 7627 ft | 0 kts | 341° |
| 2026-05-05 07:54 | 8.98346 | 38.80065 | 7627 ft | 0 kts | 341° |
| 2026-05-05 07:54 | 8.98336 | 38.80068 | 7628 ft | 2 kts | 342° |
| 2026-05-05 07:54 | 8.98321 | 38.80073 | 7629 ft | 2 kts | 342° |
| 2026-05-05 07:55 | 8.98312 | 38.80076 | 7629 ft | 2 kts | 336° |
| 2026-05-05 07:55 | 8.98301 | 38.80085 | 7630 ft | 2 kts | 306° |
| 2026-05-05 07:55 | 8.98294 | 38.80099 | 7630 ft | 2 kts | 279° |
| 2026-05-05 07:55 | 8.98294 | 38.80112 | 7630 ft | 0 kts | 257° |
| 2026-05-05 07:56 | 8.98296 | 38.80119 | 7630 ft | 1 kts | 252° |
| 2026-05-05 07:56 | 8.98296 | 38.80120 | 7630 ft | 0 kts | 253° |
| 2026-05-05 07:58 | 8.98296 | 38.80119 | 7630 ft | 1 kts | 253° |
| 2026-05-05 07:58 | 8.98283 | 38.80076 | 7631 ft | 7 kts | 253° |
| 2026-05-05 07:58 | 8.98260 | 38.80000 | 7632 ft | 16 kts | 253° |
| 2026-05-05 07:58 | 8.98222 | 38.79873 | 7638 ft | 17 kts | 254° |
| 2026-05-05 07:59 | 8.98189 | 38.79767 | 7641 ft | 15 kts | 238° |
| 2026-05-05 07:59 | 8.98128 | 38.79635 | 7640 ft | 24 kts | 253° |
| 2026-05-05 07:59 | 8.98078 | 38.79469 | 7635 ft | 24 kts | 254° |
| 2026-05-05 07:59 | 8.98028 | 38.79295 | 7631 ft | 27 kts | 254° |
| 2026-05-05 08:00 | 8.97971 | 38.79101 | 7634 ft | 27 kts | 253° |
| 2026-05-05 08:00 | 8.97921 | 38.78932 | 7638 ft | 23 kts | 254° |
| 2026-05-05 08:00 | 8.97876 | 38.78773 | 7638 ft | 14 kts | 253° |
| 2026-05-05 08:00 | 8.97818 | 38.78746 | 7636 ft | 11 kts | 163° |
| 2026-05-05 08:01 | 8.97742 | 38.78771 | 7634 ft | 11 kts | 163° |
| 2026-05-05 08:01 | 8.97725 | 38.78776 | 7633 ft | 0 kts | 164° |
| 2026-05-05 08:01 | 8.97709 | 38.78780 | 7632 ft | 9 kts | 163° |
| 2026-05-05 08:02 | 8.97619 | 38.78807 | 7630 ft | 13 kts | 164° |
| 2026-05-05 08:02 | 8.97585 | 38.78817 | 7630 ft | 3 kts | 164° |
| 2026-05-05 08:02 | 8.97574 | 38.78847 | 7629 ft | 4 kts | 76° |
| 2026-05-05 08:02 | 8.97578 | 38.78857 | 7630 ft | 5 kts | 73° |
| 2026-05-05 08:03 | 8.97646 | 38.79095 | 7631 ft | 68 kts | 74° |
| 2026-05-05 08:03 | 8.97840 | 38.79754 | 7638 ft | 126 kts | 73° |
| 2026-05-05 08:03 | 8.98141 | 38.80786 | 7624 ft | 177 kts | 74° |
| 2026-05-05 08:03 | 8.98496 | 38.82035 | 8129 ft | 183 kts | 75° |
| 2026-05-05 08:04 | 8.98831 | 38.83240 | 8848 ft | 180 kts | 75° |
| 2026-05-05 08:04 | 8.99190 | 38.84449 | 9458 ft | 182 kts | 74° |
| 2026-05-05 08:04 | 8.99546 | 38.85681 | 10046 ft | 182 kts | 75° |
| 2026-05-05 08:04 | 8.99873 | 38.86908 | 10602 ft | 183 kts | 75° |
| 2026-05-05 08:05 | 9.00209 | 38.88146 | 11098 ft | 187 kts | 74° |
| 2026-05-05 08:05 | 9.00581 | 38.89463 | 11417 ft | 204 kts | 74° |
| 2026-05-05 08:05 | 9.00985 | 38.90888 | 11849 ft | 216 kts | 73° |
| 2026-05-05 08:05 | 9.01409 | 38.92392 | 12255 ft | 229 kts | 72° |
| 2026-05-05 08:06 | 9.02171 | 38.93859 | 12602 ft | 246 kts | 46° |
| 2026-05-05 08:06 | 9.03644 | 38.94802 | 13046 ft | 261 kts | 19° |
| 2026-05-05 08:06 | 9.05496 | 38.95021 | 13493 ft | 278 kts | 358° |
| 2026-05-05 08:06 | 9.07414 | 38.94540 | 13864 ft | 299 kts | 336° |
| 2026-05-05 08:07 | 9.09054 | 38.93140 | 14252 ft | 321 kts | 307° |
| 2026-05-05 08:07 | 9.09901 | 38.91017 | 14847 ft | 331 kts | 282° |
| 2026-05-05 08:07 | 9.10098 | 38.88691 | 15477 ft | 336 kts | 272° |
| 2026-05-05 08:07 | 9.10106 | 38.86303 | 16134 ft | 339 kts | 271° |
| 2026-05-05 08:08 | 9.10135 | 38.83929 | 16777 ft | 342 kts | 272° |
| 2026-05-05 08:08 | 9.10244 | 38.81507 | 17374 ft | 346 kts | 274° |
| 2026-05-05 08:08 | 9.10295 | 38.79077 | 17981 ft | 348 kts | 268° |
| 2026-05-05 08:08 | 9.09947 | 38.76656 | 18601 ft | 350 kts | 254° |
| 2026-05-05 08:09 | 9.09033 | 38.74361 | 18965 ft | 361 kts | 242° |
| 2026-05-05 08:09 | 9.07743 | 38.72106 | 19203 ft | 375 kts | 238° |
| 2026-05-05 08:09 | 9.06330 | 38.69867 | 19483 ft | 388 kts | 237° |
| 2026-05-05 08:09 | 9.04827 | 38.67535 | 19784 ft | 399 kts | 237° |
| 2026-05-05 08:10 | 9.03302 | 38.65157 | 20185 ft | 407 kts | 237° |
| 2026-05-05 08:10 | 9.01766 | 38.62735 | 20759 ft | 408 kts | 238° |
| 2026-05-05 08:10 | 9.00246 | 38.60321 | 21343 ft | 410 kts | 238° |
| 2026-05-05 08:10 | 8.98707 | 38.57868 | 21851 ft | 413 kts | 238° |
| 2026-05-05 08:11 | 8.97174 | 38.55416 | 22362 ft | 416 kts | 238° |
| 2026-05-05 08:11 | 8.95624 | 38.52931 | 22915 ft | 419 kts | 238° |
| 2026-05-05 08:11 | 8.94068 | 38.50433 | 23448 ft | 421 kts | 238° |
| 2026-05-05 08:11 | 8.92492 | 38.47901 | 23948 ft | 424 kts | 238° |
| 2026-05-05 08:12 | 8.90918 | 38.45373 | 24452 ft | 427 kts | 238° |
| 2026-05-05 08:12 | 8.89330 | 38.42824 | 24912 ft | 430 kts | 238° |
| 2026-05-05 08:12 | 8.87740 | 38.40270 | 25433 ft | 431 kts | 238° |
| 2026-05-05 08:12 | 8.86141 | 38.37703 | 25886 ft | 434 kts | 238° |
| 2026-05-05 08:13 | 8.84533 | 38.35123 | 26357 ft | 436 kts | 238° |
| 2026-05-05 08:13 | 8.82913 | 38.32524 | 26882 ft | 437 kts | 238° |
| 2026-05-05 08:13 | 8.81289 | 38.29921 | 27258 ft | 441 kts | 238° |
| 2026-05-05 08:13 | 8.79642 | 38.27280 | 27779 ft | 441 kts | 238° |
| 2026-05-05 08:14 | 8.77997 | 38.24644 | 28170 ft | 444 kts | 238° |
| 2026-05-05 08:14 | 8.76360 | 38.22020 | 28571 ft | 446 kts | 238° |
| 2026-05-05 08:14 | 8.74690 | 38.19344 | 28974 ft | 449 kts | 238° |
| 2026-05-05 08:14 | 8.73032 | 38.16689 | 29358 ft | 452 kts | 238° |
| 2026-05-05 08:15 | 8.71331 | 38.13964 | 29709 ft | 456 kts | 238° |
| 2026-05-05 08:15 | 8.69636 | 38.11250 | 30151 ft | 457 kts | 238° |
| 2026-05-05 08:15 | 8.67933 | 38.08524 | 30493 ft | 460 kts | 238° |
| 2026-05-05 08:15 | 8.66239 | 38.05812 | 30882 ft | 462 kts | 238° |
| 2026-05-05 08:16 | 8.64516 | 38.03054 | 31445 ft | 459 kts | 238° |
| 2026-05-05 08:16 | 8.62827 | 38.00351 | 32060 ft | 456 kts | 237° |
| 2026-05-05 08:16 | 8.61147 | 37.97662 | 32579 ft | 454 kts | 238° |
| 2026-05-05 08:16 | 8.59455 | 37.94956 | 33032 ft | 454 kts | 238° |
| 2026-05-05 08:17 | 8.57774 | 37.92265 | 33486 ft | 453 kts | 238° |
| 2026-05-05 08:17 | 8.56076 | 37.89550 | 33910 ft | 453 kts | 238° |
| 2026-05-05 08:17 | 8.54404 | 37.86878 | 34382 ft | 452 kts | 238° |
| 2026-05-05 08:17 | 8.52735 | 37.84210 | 34775 ft | 452 kts | 238° |
| 2026-05-05 08:18 | 8.51044 | 37.81505 | 35172 ft | 452 kts | 238° |
| 2026-05-05 08:18 | 8.49370 | 37.78829 | 35536 ft | 452 kts | 238° |
| 2026-05-05 08:18 | 8.47681 | 37.76130 | 35899 ft | 452 kts | 238° |
| 2026-05-05 08:18 | 8.45974 | 37.73402 | 36241 ft | 453 kts | 238° |
| 2026-05-05 08:19 | 8.44274 | 37.70686 | 36577 ft | 453 kts | 238° |
| 2026-05-05 08:19 | 8.42580 | 37.67981 | 36911 ft | 453 kts | 239° |
| 2026-05-05 08:19 | 8.40879 | 37.65266 | 37254 ft | 453 kts | 239° |
| 2026-05-05 08:19 | 8.39175 | 37.62546 | 37582 ft | 453 kts | 239° |
| 2026-05-05 08:20 | 8.37484 | 37.59848 | 37893 ft | 452 kts | 239° |
| 2026-05-05 08:20 | 8.35812 | 37.57181 | 38161 ft | 453 kts | 239° |
| 2026-05-05 08:20 | 8.34123 | 37.54485 | 38379 ft | 453 kts | 239° |
| 2026-05-05 08:20 | 8.32418 | 37.51764 | 38361 ft | 456 kts | 239° |
| 2026-05-05 08:21 | 8.29032 | 37.46365 | 38339 ft | 452 kts | 239° |
| 2026-05-05 08:21 | 8.25652 | 37.40978 | 38377 ft | 454 kts | 239° |
| 2026-05-05 08:22 | 8.22242 | 37.35545 | 38396 ft | 455 kts | 239° |
| 2026-05-05 08:22 | 8.18936 | 37.30093 | 38447 ft | 453 kts | 241° |
| 2026-05-05 08:23 | 8.15793 | 37.24572 | 38452 ft | 453 kts | 241° |
| 2026-05-05 08:23 | 8.12685 | 37.19063 | 38430 ft | 452 kts | 242° |
| 2026-05-05 08:24 | 8.09551 | 37.13534 | 38393 ft | 451 kts | 241° |
| 2026-05-05 08:24 | 8.06418 | 37.08037 | 38385 ft | 453 kts | 241° |
| 2026-05-05 08:25 | 8.03259 | 37.02517 | 38362 ft | 454 kts | 241° |
| 2026-05-05 08:25 | 8.00112 | 36.97028 | 38354 ft | 453 kts | 241° |
| 2026-05-05 08:26 | 7.96953 | 36.91520 | 38369 ft | 453 kts | 241° |
| 2026-05-05 08:26 | 7.93810 | 36.86041 | 38364 ft | 452 kts | 241° |
| 2026-05-05 08:27 | 7.90637 | 36.80518 | 38371 ft | 452 kts | 241° |
| 2026-05-05 08:27 | 7.87495 | 36.75050 | 38382 ft | 453 kts | 241° |
| 2026-05-05 08:28 | 7.84330 | 36.69543 | 38380 ft | 453 kts | 241° |
| 2026-05-05 08:28 | 7.81172 | 36.64049 | 38382 ft | 452 kts | 241° |
| 2026-05-05 08:29 | 7.78019 | 36.58567 | 38387 ft | 452 kts | 241° |
| 2026-05-05 08:30 | 7.73271 | 36.50316 | 38392 ft | 452 kts | 241° |
| 2026-05-05 08:30 | 7.70123 | 36.44847 | 38383 ft | 452 kts | 242° |
| 2026-05-05 08:31 | 7.66972 | 36.39375 | 38384 ft | 452 kts | 242° |
| 2026-05-05 08:31 | 7.63805 | 36.33873 | 38363 ft | 451 kts | 241° |
| 2026-05-05 08:32 | 7.60641 | 36.28376 | 38352 ft | 450 kts | 241° |
| 2026-05-05 08:32 | 7.57503 | 36.22923 | 38345 ft | 450 kts | 241° |
| 2026-05-05 08:33 | 7.54348 | 36.17444 | 38332 ft | 450 kts | 242° |
| 2026-05-05 08:33 | 7.51201 | 36.11981 | 38323 ft | 451 kts | 242° |
| 2026-05-05 08:34 | 7.48057 | 36.06527 | 38335 ft | 452 kts | 242° |
| 2026-05-05 08:34 | 7.44895 | 36.01041 | 38315 ft | 451 kts | 241° |
| 2026-05-05 08:35 | 7.41745 | 35.95578 | 38307 ft | 450 kts | 241° |
| 2026-05-05 08:35 | 7.38601 | 35.90129 | 38301 ft | 450 kts | 241° |
| 2026-05-05 08:36 | 7.35473 | 35.84708 | 38320 ft | 449 kts | 242° |
| 2026-05-05 08:36 | 7.32331 | 35.79266 | 38317 ft | 450 kts | 241° |
| 2026-05-05 08:37 | 7.29178 | 35.73808 | 38293 ft | 450 kts | 242° |
| 2026-05-05 08:37 | 7.26046 | 35.68387 | 38263 ft | 450 kts | 241° |
| 2026-05-05 08:38 | 7.22880 | 35.62910 | 38247 ft | 449 kts | 241° |
| 2026-05-05 08:38 | 7.19726 | 35.57453 | 38219 ft | 450 kts | 241° |
| 2026-05-05 08:39 | 7.16581 | 35.52015 | 38201 ft | 450 kts | 241° |
| 2026-05-05 08:39 | 7.13434 | 35.46576 | 38180 ft | 450 kts | 241° |
| 2026-05-05 08:40 | 7.10274 | 35.41117 | 38168 ft | 451 kts | 241° |
| 2026-05-05 08:40 | 7.07114 | 35.35660 | 38162 ft | 450 kts | 241° |
| 2026-05-05 08:41 | 7.03965 | 35.30222 | 38138 ft | 450 kts | 241° |
| 2026-05-05 08:41 | 7.00802 | 35.24762 | 38122 ft | 451 kts | 241° |
| 2026-05-05 08:42 | 6.97634 | 35.19296 | 38126 ft | 451 kts | 241° |
| 2026-05-05 08:42 | 6.94481 | 35.13857 | 38143 ft | 452 kts | 241° |
| 2026-05-05 08:43 | 6.91309 | 35.08387 | 38173 ft | 452 kts | 241° |
| 2026-05-05 08:43 | 6.88121 | 35.02891 | 38189 ft | 452 kts | 241° |
| 2026-05-05 08:44 | 6.84959 | 34.97442 | 38196 ft | 452 kts | 240° |
| 2026-05-05 08:44 | 6.81783 | 34.91970 | 38171 ft | 452 kts | 240° |
| 2026-05-05 08:45 | 6.78593 | 34.86477 | 38142 ft | 453 kts | 240° |
| 2026-05-05 08:45 | 6.75408 | 34.80993 | 38086 ft | 452 kts | 241° |
| 2026-05-05 08:46 | 6.72243 | 34.75546 | 38026 ft | 451 kts | 241° |
| 2026-05-05 08:46 | 6.69066 | 34.70082 | 38009 ft | 451 kts | 240° |
| 2026-05-05 08:47 | 6.65894 | 34.64621 | 38001 ft | 452 kts | 240° |
| 2026-05-05 08:47 | 6.62718 | 34.59150 | 38013 ft | 452 kts | 240° |
| 2026-05-05 08:48 | 6.59554 | 34.53701 | 38032 ft | 452 kts | 240° |
| 2026-05-05 08:48 | 6.56373 | 34.48222 | 38037 ft | 452 kts | 241° |
| 2026-05-05 08:49 | 6.53207 | 34.42773 | 38039 ft | 452 kts | 240° |
| 2026-05-05 08:49 | 6.50037 | 34.37320 | 38020 ft | 451 kts | 240° |
| 2026-05-05 08:50 | 6.46874 | 34.31879 | 38007 ft | 451 kts | 240° |
| 2026-05-05 08:50 | 6.43678 | 34.26384 | 37994 ft | 452 kts | 240° |
| 2026-05-05 08:51 | 6.40504 | 34.20927 | 37973 ft | 452 kts | 240° |
| 2026-05-05 08:51 | 6.37349 | 34.15475 | 37971 ft | 453 kts | 241° |
| 2026-05-05 08:52 | 6.34181 | 34.09947 | 37958 ft | 454 kts | 241° |
| 2026-05-05 08:52 | 6.31047 | 34.04471 | 37942 ft | 452 kts | 241° |
| 2026-05-05 08:53 | 6.27920 | 33.99013 | 37940 ft | 451 kts | 241° |
| 2026-05-05 08:53 | 6.24774 | 33.93528 | 37940 ft | 452 kts | 241° |
| 2026-05-05 08:54 | 6.21636 | 33.88059 | 37936 ft | 452 kts | 241° |
| 2026-05-05 08:54 | 6.18477 | 33.82558 | 37933 ft | 453 kts | 241° |
| 2026-05-05 08:55 | 6.15314 | 33.77055 | 37933 ft | 454 kts | 241° |
| 2026-05-05 08:55 | 6.12156 | 33.71562 | 37928 ft | 454 kts | 241° |
| 2026-05-05 08:56 | 6.09004 | 33.66081 | 37917 ft | 454 kts | 240° |
| 2026-05-05 08:56 | 6.05813 | 33.60534 | 37916 ft | 454 kts | 240° |
| 2026-05-05 08:57 | 6.02657 | 33.55051 | 37920 ft | 453 kts | 240° |
| 2026-05-05 08:57 | 5.99491 | 33.49550 | 37918 ft | 454 kts | 240° |
| 2026-05-05 08:58 | 5.96321 | 33.44043 | 37925 ft | 455 kts | 240° |
| 2026-05-05 08:58 | 5.93156 | 33.38548 | 37928 ft | 455 kts | 240° |
| 2026-05-05 08:59 | 5.89992 | 33.33011 | 37924 ft | 456 kts | 242° |
| 2026-05-05 08:59 | 5.87224 | 33.27298 | 37926 ft | 453 kts | 246° |
| 2026-05-05 09:00 | 5.84686 | 33.21507 | 37926 ft | 453 kts | 246° |
| 2026-05-05 09:00 | 5.82159 | 33.15705 | 37834 ft | 453 kts | 246° |
| 2026-05-05 09:00 | 5.80898 | 33.12835 | 37435 ft | 448 kts | 246° |
| 2026-05-05 09:01 | 5.79628 | 33.09964 | 36920 ft | 444 kts | 246° |
| 2026-05-05 09:01 | 5.78382 | 33.07159 | 36327 ft | 442 kts | 246° |
| 2026-05-05 09:01 | 5.77136 | 33.04365 | 35710 ft | 440 kts | 245° |
| 2026-05-05 09:01 | 5.75887 | 33.01574 | 35023 ft | 440 kts | 245° |
| 2026-05-05 09:02 | 5.74625 | 32.98760 | 34315 ft | 440 kts | 245° |
| 2026-05-05 09:02 | 5.73376 | 32.95977 | 33603 ft | 439 kts | 245° |
| 2026-05-05 09:02 | 5.72127 | 32.93200 | 32875 ft | 440 kts | 245° |
| 2026-05-05 09:02 | 5.70861 | 32.90384 | 32159 ft | 440 kts | 245° |
| 2026-05-05 09:03 | 5.69596 | 32.87575 | 31416 ft | 442 kts | 245° |
| 2026-05-05 09:03 | 5.68345 | 32.84795 | 30850 ft | 439 kts | 245° |
| 2026-05-05 09:03 | 5.67097 | 32.82023 | 30388 ft | 435 kts | 245° |
| 2026-05-05 09:03 | 5.65843 | 32.79235 | 29883 ft | 446 kts | 245° |
| 2026-05-05 09:04 | 5.64548 | 32.76363 | 29335 ft | 456 kts | 245° |
| 2026-05-05 09:04 | 5.63246 | 32.73474 | 28783 ft | 453 kts | 245° |
| 2026-05-05 09:04 | 5.61952 | 32.70603 | 28244 ft | 449 kts | 245° |
| 2026-05-05 09:04 | 5.60653 | 32.67722 | 27700 ft | 445 kts | 245° |
| 2026-05-05 09:05 | 5.59389 | 32.64916 | 27161 ft | 441 kts | 245° |
| 2026-05-05 09:05 | 5.58124 | 32.62107 | 26615 ft | 437 kts | 245° |
| 2026-05-05 09:05 | 5.56881 | 32.59346 | 26071 ft | 434 kts | 245° |
| 2026-05-05 09:05 | 5.55631 | 32.56574 | 25523 ft | 430 kts | 245° |
| 2026-05-05 09:06 | 5.54412 | 32.53867 | 24989 ft | 427 kts | 245° |
| 2026-05-05 09:06 | 5.53185 | 32.51145 | 24447 ft | 423 kts | 245° |
| 2026-05-05 09:06 | 5.51970 | 32.48449 | 23909 ft | 420 kts | 244° |
| 2026-05-05 09:06 | 5.50770 | 32.45787 | 23361 ft | 417 kts | 244° |
| 2026-05-05 09:07 | 5.49575 | 32.43137 | 22819 ft | 413 kts | 244° |
| 2026-05-05 09:07 | 5.48389 | 32.40507 | 22280 ft | 410 kts | 244° |
| 2026-05-05 09:07 | 5.47221 | 32.37919 | 21761 ft | 407 kts | 244° |
| 2026-05-05 09:07 | 5.46044 | 32.35310 | 21225 ft | 404 kts | 245° |
| 2026-05-05 09:08 | 5.44890 | 32.32756 | 20699 ft | 401 kts | 244° |
| 2026-05-05 09:08 | 5.43750 | 32.30229 | 20169 ft | 398 kts | 245° |
| 2026-05-05 09:08 | 5.42602 | 32.27688 | 19635 ft | 395 kts | 245° |
| 2026-05-05 09:08 | 5.41464 | 32.25167 | 19100 ft | 392 kts | 245° |
| 2026-05-05 09:09 | 5.40347 | 32.22693 | 18572 ft | 389 kts | 245° |
| 2026-05-05 09:09 | 5.39235 | 32.20229 | 18041 ft | 386 kts | 245° |
| 2026-05-05 09:09 | 5.38137 | 32.17796 | 17519 ft | 383 kts | 245° |
| 2026-05-05 09:09 | 5.37031 | 32.15345 | 16988 ft | 380 kts | 246° |
| 2026-05-05 09:10 | 5.35952 | 32.12953 | 16470 ft | 378 kts | 246° |
| 2026-05-05 09:10 | 5.34868 | 32.10551 | 15944 ft | 376 kts | 246° |
| 2026-05-05 09:10 | 5.33786 | 32.08157 | 15420 ft | 373 kts | 246° |
| 2026-05-05 09:10 | 5.32718 | 32.05791 | 14900 ft | 371 kts | 246° |
| 2026-05-05 09:11 | 5.31656 | 32.03441 | 14385 ft | 369 kts | 246° |
| 2026-05-05 09:11 | 5.30590 | 32.01084 | 13864 ft | 368 kts | 246° |
| 2026-05-05 09:11 | 5.29542 | 31.98767 | 13350 ft | 366 kts | 246° |
| 2026-05-05 09:11 | 5.28497 | 31.96454 | 12838 ft | 365 kts | 246° |
| 2026-05-05 09:12 | 5.27444 | 31.94125 | 12320 ft | 364 kts | 246° |
| 2026-05-05 09:12 | 5.26402 | 31.91821 | 11803 ft | 363 kts | 246° |
| 2026-05-05 09:12 | 5.25360 | 31.89518 | 11290 ft | 361 kts | 247° |
| 2026-05-05 09:12 | 5.24331 | 31.87244 | 10878 ft | 357 kts | 247° |
| 2026-05-05 09:13 | 5.23317 | 31.85004 | 10706 ft | 345 kts | 247° |
| 2026-05-05 09:13 | 5.22333 | 31.82831 | 10497 ft | 335 kts | 247° |
| 2026-05-05 09:13 | 5.21375 | 31.80711 | 10050 ft | 335 kts | 247° |
| 2026-05-05 09:13 | 5.20426 | 31.78612 | 9872 ft | 324 kts | 247° |
| 2026-05-05 09:14 | 5.19510 | 31.76588 | 9678 ft | 316 kts | 247° |
| 2026-05-05 09:14 | 5.18604 | 31.74584 | 9330 ft | 313 kts | 247° |
| 2026-05-05 09:14 | 5.18154 | 31.73589 | 9223 ft | 309 kts | 247° |
| 2026-05-05 09:14 | 5.17351 | 31.71815 | 8874 ft | 303 kts | 246° |
| 2026-05-05 09:15 | 5.16494 | 31.69919 | 8418 ft | 297 kts | 246° |
| 2026-05-05 09:15 | 5.15638 | 31.68025 | 7892 ft | 295 kts | 246° |
| 2026-05-05 09:15 | 5.14798 | 31.66168 | 7390 ft | 291 kts | 245° |
| 2026-05-05 09:15 | 5.13978 | 31.64356 | 6989 ft | 282 kts | 245° |
| 2026-05-05 09:16 | 5.13179 | 31.62588 | 6614 ft | 272 kts | 245° |
| 2026-05-05 09:16 | 5.12415 | 31.60900 | 6275 ft | 263 kts | 244° |
| 2026-05-05 09:16 | 5.11663 | 31.59238 | 5944 ft | 254 kts | 244° |
| 2026-05-05 09:16 | 5.10947 | 31.57656 | 5634 ft | 246 kts | 244° |
| 2026-05-05 09:17 | 5.10251 | 31.56119 | 5495 ft | 233 kts | 244° |
| 2026-05-05 09:17 | 5.09601 | 31.54680 | 5422 ft | 219 kts | 244° |
| 2026-05-05 09:17 | 5.08974 | 31.53297 | 5354 ft | 220 kts | 244° |
| 2026-05-05 09:17 | 5.08325 | 31.51880 | 5280 ft | 220 kts | 242° |
| 2026-05-05 09:18 | 5.07505 | 31.50589 | 5106 ft | 219 kts | 225° |
| 2026-05-05 09:18 | 5.06359 | 31.49600 | 4814 ft | 216 kts | 214° |
| 2026-05-05 09:18 | 5.05154 | 31.48689 | 4548 ft | 213 kts | 215° |
| 2026-05-05 09:18 | 5.04003 | 31.47766 | 4319 ft | 208 kts | 217° |
| 2026-05-05 09:19 | 5.02902 | 31.46840 | 4115 ft | 203 kts | 217° |
| 2026-05-05 09:19 | 5.01799 | 31.46022 | 4018 ft | 189 kts | 204° |
| 2026-05-05 09:19 | 5.00581 | 31.45761 | 3970 ft | 177 kts | 170° |
| 2026-05-05 09:19 | 4.99407 | 31.46107 | 3936 ft | 176 kts | 152° |
| 2026-05-05 09:20 | 4.98404 | 31.46801 | 3883 ft | 172 kts | 131° |
| 2026-05-05 09:20 | 4.97657 | 31.47724 | 3851 ft | 168 kts | 127° |
| 2026-05-05 09:20 | 4.96943 | 31.48617 | 3815 ft | 157 kts | 128° |
| 2026-05-05 09:20 | 4.96235 | 31.49453 | 3625 ft | 155 kts | 129° |
| 2026-05-05 09:21 | 4.95542 | 31.50265 | 3466 ft | 152 kts | 129° |
| 2026-05-05 09:21 | 4.94855 | 31.51076 | 3325 ft | 151 kts | 129° |
| 2026-05-05 09:21 | 4.94169 | 31.51887 | 3134 ft | 154 kts | 129° |
| 2026-05-05 09:21 | 4.93472 | 31.52704 | 2896 ft | 152 kts | 129° |
| 2026-05-05 09:22 | 4.92788 | 31.53509 | 2695 ft | 151 kts | 129° |
| 2026-05-05 09:22 | 4.92102 | 31.54316 | 2497 ft | 150 kts | 129° |
| 2026-05-05 09:22 | 4.91424 | 31.55129 | 2290 ft | 152 kts | 129° |
| 2026-05-05 09:22 | 4.90739 | 31.55940 | 2101 ft | 152 kts | 130° |
| 2026-05-05 09:23 | 4.90046 | 31.56737 | 1944 ft | 150 kts | 129° |
| 2026-05-05 09:23 | 4.89376 | 31.57534 | 1833 ft | 149 kts | 128° |
| 2026-05-05 09:23 | 4.88698 | 31.58338 | 1676 ft | 151 kts | 129° |
| 2026-05-05 09:23 | 4.88014 | 31.59150 | 1532 ft | 149 kts | 129° |
| 2026-05-05 09:24 | 4.87472 | 31.59793 | 1536 ft | 85 kts | 130° |
| 2026-05-05 09:24 | 4.87209 | 31.60104 | 1537 ft | 40 kts | 128° |
| 2026-05-05 09:24 | 4.87097 | 31.60203 | 1537 ft | 11 kts | 198° |
| 2026-05-05 09:24 | 4.87033 | 31.60152 | 1537 ft | 11 kts | 219° |
| 2026-05-05 09:25 | 4.86972 | 31.60110 | 1536 ft | 8 kts | 192° |
| 2026-05-05 09:25 | 4.86921 | 31.60131 | 1537 ft | 7 kts | 133° |
| 2026-05-05 09:25 | 4.86888 | 31.60170 | 1537 ft | 6 kts | 128° |
| 2026-05-05 09:25 | 4.86853 | 31.60180 | 1538 ft | 5 kts | 205° |
| 2026-05-05 09:26 | 4.86829 | 31.60162 | 1539 ft | 3 kts | 221° |
| 2026-05-05 09:26 | 4.86819 | 31.60153 | 1539 ft | 0 kts | 223° |
| 2026-05-05 09:26 | 4.86803 | 31.60139 | 1539 ft | 5 kts | 223° |
| 2026-05-05 09:26 | 4.86803 | 31.60122 | 1539 ft | 1 kts | 3° |
| 2026-05-05 09:27 | 4.86806 | 31.60124 | 1539 ft | 0 kts | 32° |